sensor_id;sensor_type;location;lat;lon;timestamp;temperature;humidity
48007;DHT22;33771;48.180;11.400;2023-04-01T00:00:58;7.50;99.90
48007;DHT22;33771;48.180;11.400;2023-04-01T00:03:24;7.40;99.90
48007;DHT22;33771;48.180;11.400;2023-04-01T00:05:52;7.40;99.90
48007;DHT22;33771;48.180;11.400;2023-04-01T00:08:18;7.40;99.90
48007;DHT22;33771;48.180;11.400;2023-04-01T00:10:44;7.40;99.90
48007;DHT22;33771;48.180;11.400;2023-04-01T00:13:10;7.40;99.90
48007;DHT22;33771;48.180;11.400;2023-04-01T00:15:36;7.40;99.90
48007;DHT22;33771;48.180;11.400;2023-04-01T00:18:05;7.40;99.90
48007;DHT22;33771;48.180;11.400;2023-04-01T00:20:31;7.40;99.90
48007;DHT22;33771;48.180;11.400;2023-04-01T00:23:00;7.30;99.90
48007;DHT22;33771;48.180;11.400;2023-04-01T00:25:26;7.30;99.90
48007;DHT22;33771;48.180;11.400;2023-04-01T00:27:52;7.20;99.90
48007;DHT22;33771;48.180;11.400;2023-04-01T00:30:18;7.20;99.90
48007;DHT22;33771;48.180;11.400;2023-04-01T00:32:44;7.20;99.90
48007;DHT22;33771;48.180;11.400;2023-04-01T00:35:12;7.10;99.90
48007;DHT22;33771;48.180;11.400;2023-04-01T00:37:38;7.10;99.90
48007;DHT22;33771;48.180;11.400;2023-04-01T00:42:49;7.10;99.90
48007;DHT22;33771;48.180;11.400;2023-04-01T00:47:52;7.00;99.90
48007;DHT22;33771;48.180;11.400;2023-04-01T00:50:19;7.00;99.90
48007;DHT22;33771;48.180;11.400;2023-04-01T00:52:45;7.00;99.90
48007;DHT22;33771;48.180;11.400;2023-04-01T00:55:13;7.00;99.90
48007;DHT22;33771;48.180;11.400;2023-04-01T00:57:40;7.00;99.90
48007;DHT22;33771;48.180;11.400;2023-04-01T01:00:10;7.00;99.90
48007;DHT22;33771;48.180;11.400;2023-04-01T01:02:38;7.00;99.90
48007;DHT22;33771;48.180;11.400;2023-04-01T01:05:05;7.00;99.90
48007;DHT22;33771;48.180;11.400;2023-04-01T01:07:46;7.00;99.90
48007;DHT22;33771;48.180;11.400;2023-04-01T01:10:18;7.10;99.90
48007;DHT22;33771;48.180;11.400;2023-04-01T01:15:51;7.20;99.90
48007;DHT22;33771;48.180;11.400;2023-04-01T01:21:11;7.40;99.90
48007;DHT22;33771;48.180;11.400;2023-04-01T01:24:05;7.40;99.90
48007;DHT22;33771;48.180;11.400;2023-04-01T01:34:53;7.50;99.90
48007;DHT22;33771;48.180;11.400;2023-04-01T01:37:25;7.50;99.90
48007;DHT22;33771;48.180;11.400;2023-04-01T01:39:55;7.50;99.90
48007;DHT22;33771;48.180;11.400;2023-04-01T01:42:23;7.50;99.90
48007;DHT22;33771;48.180;11.400;2023-04-01T01:44:50;7.50;99.90
48007;DHT22;33771;48.180;11.400;2023-04-01T01:47:19;7.50;99.90
48007;DHT22;33771;48.180;11.400;2023-04-01T01:49:45;7.50;99.90
48007;DHT22;33771;48.180;11.400;2023-04-01T01:52:12;7.50;99.90
48007;DHT22;33771;48.180;11.400;2023-04-01T01:54:50;7.50;99.90
48007;DHT22;33771;48.180;11.400;2023-04-01T01:57:19;7.50;99.90
48007;DHT22;33771;48.180;11.400;2023-04-01T01:59:46;7.50;99.90
48007;DHT22;33771;48.180;11.400;2023-04-01T02:02:13;7.60;99.90
48007;DHT22;33771;48.180;11.400;2023-04-01T02:04:42;7.60;99.90
48007;DHT22;33771;48.180;11.400;2023-04-01T02:07:18;7.60;99.90
48007;DHT22;33771;48.180;11.400;2023-04-01T02:09:45;7.60;99.90
48007;DHT22;33771;48.180;11.400;2023-04-01T02:12:14;7.60;99.90
48007;DHT22;33771;48.180;11.400;2023-04-01T02:14:58;7.60;99.90
48007;DHT22;33771;48.180;11.400;2023-04-01T02:17:29;7.60;99.90
48007;DHT22;33771;48.180;11.400;2023-04-01T02:20:06;7.60;99.90
48007;DHT22;33771;48.180;11.400;2023-04-01T02:22:40;7.60;99.90
48007;DHT22;33771;48.180;11.400;2023-04-01T02:25:14;7.60;99.90
48007;DHT22;33771;48.180;11.400;2023-04-01T02:27:42;7.60;99.90
48007;DHT22;33771;48.180;11.400;2023-04-01T02:30:09;7.60;99.90
48007;DHT22;33771;48.180;11.400;2023-04-01T02:32:36;7.50;99.90
48007;DHT22;33771;48.180;11.400;2023-04-01T02:35:09;7.50;99.90
48007;DHT22;33771;48.180;11.400;2023-04-01T02:37:39;7.50;99.90
48007;DHT22;33771;48.180;11.400;2023-04-01T02:40:11;7.50;99.90
48007;DHT22;33771;48.180;11.400;2023-04-01T02:42:37;7.50;99.90
48007;DHT22;33771;48.180;11.400;2023-04-01T02:45:03;7.40;99.90
48007;DHT22;33771;48.180;11.400;2023-04-01T02:47:29;7.40;99.90
48007;DHT22;33771;48.180;11.400;2023-04-01T02:49:54;7.40;99.90
48007;DHT22;33771;48.180;11.400;2023-04-01T02:52:24;7.30;99.90
48007;DHT22;33771;48.180;11.400;2023-04-01T02:54:50;7.30;99.90
48007;DHT22;33771;48.180;11.400;2023-04-01T02:57:16;7.30;99.90
48007;DHT22;33771;48.180;11.400;2023-04-01T02:59:41;7.20;99.90
48007;DHT22;33771;48.180;11.400;2023-04-01T03:02:07;7.30;99.90
48007;DHT22;33771;48.180;11.400;2023-04-01T03:04:33;7.30;99.90
48007;DHT22;33771;48.180;11.400;2023-04-01T03:06:58;7.30;99.90
48007;DHT22;33771;48.180;11.400;2023-04-01T03:09:24;7.40;99.90
48007;DHT22;33771;48.180;11.400;2023-04-01T03:11:49;7.30;99.90
48007;DHT22;33771;48.180;11.400;2023-04-01T03:14:15;7.30;99.90
48007;DHT22;33771;48.180;11.400;2023-04-01T03:16:41;7.30;99.90
48007;DHT22;33771;48.180;11.400;2023-04-01T03:19:06;7.30;99.90
48007;DHT22;33771;48.180;11.400;2023-04-01T03:21:32;7.30;99.90
48007;DHT22;33771;48.180;11.400;2023-04-01T03:23:58;7.20;99.90
48007;DHT22;33771;48.180;11.400;2023-04-01T03:26:24;7.20;99.90
48007;DHT22;33771;48.180;11.400;2023-04-01T03:28:49;7.10;99.90
48007;DHT22;33771;48.180;11.400;2023-04-01T03:31:15;7.10;99.90
48007;DHT22;33771;48.180;11.400;2023-04-01T03:33:42;7.10;99.90
48007;DHT22;33771;48.180;11.400;2023-04-01T03:36:07;7.00;99.90
48007;DHT22;33771;48.180;11.400;2023-04-01T03:38:34;7.00;99.90
48007;DHT22;33771;48.180;11.400;2023-04-01T03:41:00;7.00;99.90
48007;DHT22;33771;48.180;11.400;2023-04-01T03:43:25;7.00;99.90
48007;DHT22;33771;48.180;11.400;2023-04-01T03:45:51;7.00;99.90
48007;DHT22;33771;48.180;11.400;2023-04-01T03:48:19;7.00;99.90
48007;DHT22;33771;48.180;11.400;2023-04-01T03:50:45;7.00;99.90
48007;DHT22;33771;48.180;11.400;2023-04-01T03:53:11;6.90;99.90
48007;DHT22;33771;48.180;11.400;2023-04-01T03:55:39;6.90;99.90
48007;DHT22;33771;48.180;11.400;2023-04-01T03:58:06;6.80;99.90
48007;DHT22;33771;48.180;11.400;2023-04-01T04:00:31;6.80;99.90
48007;DHT22;33771;48.180;11.400;2023-04-01T04:02:57;6.80;99.90
48007;DHT22;33771;48.180;11.400;2023-04-01T04:05:24;6.80;99.90
48007;DHT22;33771;48.180;11.400;2023-04-01T04:07:50;6.70;99.90
48007;DHT22;33771;48.180;11.400;2023-04-01T04:10:16;6.70;99.90
48007;DHT22;33771;48.180;11.400;2023-04-01T04:12:41;6.80;99.90
48007;DHT22;33771;48.180;11.400;2023-04-01T04:15:07;6.80;99.90
48007;DHT22;33771;48.180;11.400;2023-04-01T04:17:33;6.80;99.90
48007;DHT22;33771;48.180;11.400;2023-04-01T04:19:59;6.80;99.90
48007;DHT22;33771;48.180;11.400;2023-04-01T04:22:25;6.90;99.90
48007;DHT22;33771;48.180;11.400;2023-04-01T04:24:50;6.90;99.90
48007;DHT22;33771;48.180;11.400;2023-04-01T04:27:16;6.90;99.90
48007;DHT22;33771;48.180;11.400;2023-04-01T04:29:41;6.90;99.90
48007;DHT22;33771;48.180;11.400;2023-04-01T04:32:07;6.90;99.90
48007;DHT22;33771;48.180;11.400;2023-04-01T04:34:33;7.00;99.90
48007;DHT22;33771;48.180;11.400;2023-04-01T04:37:00;7.00;99.90
48007;DHT22;33771;48.180;11.400;2023-04-01T04:39:25;7.00;99.90
48007;DHT22;33771;48.180;11.400;2023-04-01T04:41:51;7.10;99.90
48007;DHT22;33771;48.180;11.400;2023-04-01T04:44:16;7.10;99.90
48007;DHT22;33771;48.180;11.400;2023-04-01T04:46:42;7.10;99.90
48007;DHT22;33771;48.180;11.400;2023-04-01T04:49:10;7.10;99.90
48007;DHT22;33771;48.180;11.400;2023-04-01T04:51:35;7.30;99.90
48007;DHT22;33771;48.180;11.400;2023-04-01T04:54:02;7.40;99.90
48007;DHT22;33771;48.180;11.400;2023-04-01T04:56:28;7.30;99.90
48007;DHT22;33771;48.180;11.400;2023-04-01T04:58:54;7.40;99.90
48007;DHT22;33771;48.180;11.400;2023-04-01T05:01:20;7.50;99.90
48007;DHT22;33771;48.180;11.400;2023-04-01T05:03:46;7.50;99.90
48007;DHT22;33771;48.180;11.400;2023-04-01T05:06:13;7.50;99.90
48007;DHT22;33771;48.180;11.400;2023-04-01T05:08:40;7.50;99.90
48007;DHT22;33771;48.180;11.400;2023-04-01T05:11:14;7.50;99.90
48007;DHT22;33771;48.180;11.400;2023-04-01T05:13:42;7.50;99.90
48007;DHT22;33771;48.180;11.400;2023-04-01T05:16:13;7.50;99.90
48007;DHT22;33771;48.180;11.400;2023-04-01T05:18:39;7.50;99.90
48007;DHT22;33771;48.180;11.400;2023-04-01T05:21:08;7.50;99.90
48007;DHT22;33771;48.180;11.400;2023-04-01T05:23:34;7.50;99.90
48007;DHT22;33771;48.180;11.400;2023-04-01T05:26:06;7.60;99.90
48007;DHT22;33771;48.180;11.400;2023-04-01T05:28:35;7.50;99.90
48007;DHT22;33771;48.180;11.400;2023-04-01T05:31:02;7.50;99.90
48007;DHT22;33771;48.180;11.400;2023-04-01T05:33:28;7.60;99.90
48007;DHT22;33771;48.180;11.400;2023-04-01T05:35:54;7.60;99.90
48007;DHT22;33771;48.180;11.400;2023-04-01T05:38:19;7.60;99.90
48007;DHT22;33771;48.180;11.400;2023-04-01T05:40:45;7.60;99.90
48007;DHT22;33771;48.180;11.400;2023-04-01T05:43:11;7.60;99.90
48007;DHT22;33771;48.180;11.400;2023-04-01T05:45:37;7.60;99.90
48007;DHT22;33771;48.180;11.400;2023-04-01T05:48:03;7.60;99.90
48007;DHT22;33771;48.180;11.400;2023-04-01T05:50:29;7.70;99.90
48007;DHT22;33771;48.180;11.400;2023-04-01T05:52:54;7.70;99.90
48007;DHT22;33771;48.180;11.400;2023-04-01T05:55:20;7.70;99.90
48007;DHT22;33771;48.180;11.400;2023-04-01T05:57:46;7.70;99.90
48007;DHT22;33771;48.180;11.400;2023-04-01T06:00:14;7.70;99.90
48007;DHT22;33771;48.180;11.400;2023-04-01T06:02:40;7.80;99.90
48007;DHT22;33771;48.180;11.400;2023-04-01T06:05:19;7.70;99.90
48007;DHT22;33771;48.180;11.400;2023-04-01T06:07:49;7.70;99.90
48007;DHT22;33771;48.180;11.400;2023-04-01T06:10:20;7.60;99.90
48007;DHT22;33771;48.180;11.400;2023-04-01T06:12:51;7.60;99.90
48007;DHT22;33771;48.180;11.400;2023-04-01T06:21:04;7.90;99.90
48007;DHT22;33771;48.180;11.400;2023-04-01T06:30:19;8.00;99.90
48007;DHT22;33771;48.180;11.400;2023-04-01T06:32:55;8.10;99.90
48007;DHT22;33771;48.180;11.400;2023-04-01T06:35:26;8.10;99.90
48007;DHT22;33771;48.180;11.400;2023-04-01T06:41:03;8.20;99.90
48007;DHT22;33771;48.180;11.400;2023-04-01T06:46:39;8.40;99.90
48007;DHT22;33771;48.180;11.400;2023-04-01T06:49:44;8.50;99.90
48007;DHT22;33771;48.180;11.400;2023-04-01T06:52:48;8.60;99.90
48007;DHT22;33771;48.180;11.400;2023-04-01T06:55:46;8.80;99.90
48007;DHT22;33771;48.180;11.400;2023-04-01T06:58:21;8.80;99.90
48007;DHT22;33771;48.180;11.400;2023-04-01T07:01:09;8.80;99.90
48007;DHT22;33771;48.180;11.400;2023-04-01T07:04:01;8.80;99.90
48007;DHT22;33771;48.180;11.400;2023-04-01T07:06:45;8.90;99.90
48007;DHT22;33771;48.180;11.400;2023-04-01T07:09:16;8.90;99.90
48007;DHT22;33771;48.180;11.400;2023-04-01T07:11:43;8.90;99.90
48007;DHT22;33771;48.180;11.400;2023-04-01T07:14:29;9.00;99.90
48007;DHT22;33771;48.180;11.400;2023-04-01T07:17:17;9.00;99.90
48007;DHT22;33771;48.180;11.400;2023-04-01T07:19:46;9.00;99.90
48007;DHT22;33771;48.180;11.400;2023-04-01T07:22:35;9.00;99.90
48007;DHT22;33771;48.180;11.400;2023-04-01T07:25:44;9.10;99.90
48007;DHT22;33771;48.180;11.400;2023-04-01T07:28:10;9.20;99.90
48007;DHT22;33771;48.180;11.400;2023-04-01T07:30:54;9.10;99.90
48007;DHT22;33771;48.180;11.400;2023-04-01T07:34:12;9.10;99.90
48007;DHT22;33771;48.180;11.400;2023-04-01T07:36:43;9.10;99.90
48007;DHT22;33771;48.180;11.400;2023-04-01T07:42:26;9.40;99.90
48007;DHT22;33771;48.180;11.400;2023-04-01T07:48:00;9.50;99.90
48007;DHT22;33771;48.180;11.400;2023-04-01T07:50:50;9.60;99.90
48007;DHT22;33771;48.180;11.400;2023-04-01T07:56:25;9.70;99.90
48007;DHT22;33771;48.180;11.400;2023-04-01T08:04:32;9.70;99.90
48007;DHT22;33771;48.180;11.400;2023-04-01T08:07:23;9.80;99.90
48007;DHT22;33771;48.180;11.400;2023-04-01T08:10:13;9.90;99.90
48007;DHT22;33771;48.180;11.400;2023-04-01T08:15:41;10.10;99.90
48007;DHT22;33771;48.180;11.400;2023-04-01T08:21:02;10.20;99.90
48007;DHT22;33771;48.180;11.400;2023-04-01T08:23:47;10.30;99.90
48007;DHT22;33771;48.180;11.400;2023-04-01T08:26:34;10.50;99.90
48007;DHT22;33771;48.180;11.400;2023-04-01T08:29:04;10.50;99.90
48007;DHT22;33771;48.180;11.400;2023-04-01T08:31:51;10.60;99.90
48007;DHT22;33771;48.180;11.400;2023-04-01T08:34:25;10.60;99.90
48007;DHT22;33771;48.180;11.400;2023-04-01T08:37:02;10.60;99.90
48007;DHT22;33771;48.180;11.400;2023-04-01T08:39:33;10.50;99.90
48007;DHT22;33771;48.180;11.400;2023-04-01T08:56:18;11.20;99.90
48007;DHT22;33771;48.180;11.400;2023-04-01T09:23:46;11.70;99.90
48007;DHT22;33771;48.180;11.400;2023-04-01T09:32:15;11.80;99.90
48007;DHT22;33771;48.180;11.400;2023-04-01T09:40:34;11.70;99.90
48007;DHT22;33771;48.180;11.400;2023-04-01T09:48:46;12.30;99.90
48007;DHT22;33771;48.180;11.400;2023-04-01T09:51:40;12.40;99.90
48007;DHT22;33771;48.180;11.400;2023-04-01T10:11:22;12.50;99.90
48007;DHT22;33771;48.180;11.400;2023-04-01T10:17:08;12.50;99.90
48007;DHT22;33771;48.180;11.400;2023-04-01T10:20:12;12.40;99.90
48007;DHT22;33771;48.180;11.400;2023-04-01T10:56:09;11.50;99.90
48007;DHT22;33771;48.180;11.400;2023-04-01T10:59:10;11.40;99.90
48007;DHT22;33771;48.180;11.400;2023-04-01T11:10:50;11.20;99.90
48007;DHT22;33771;48.180;11.400;2023-04-01T11:13:51;11.10;99.90
48007;DHT22;33771;48.180;11.400;2023-04-01T11:16:41;11.00;99.90
48007;DHT22;33771;48.180;11.400;2023-04-01T11:22:51;11.10;99.90
48007;DHT22;33771;48.180;11.400;2023-04-01T11:25:35;11.10;99.90
48007;DHT22;33771;48.180;11.400;2023-04-01T11:33:44;10.80;99.90
48007;DHT22;33771;48.180;11.400;2023-04-01T11:36:28;10.40;99.90
48007;DHT22;33771;48.180;11.400;2023-04-01T11:41:46;9.90;99.90
48007;DHT22;33771;48.180;11.400;2023-04-01T11:44:21;9.70;99.90
48007;DHT22;33771;48.180;11.400;2023-04-01T11:47:12;9.60;99.90
48007;DHT22;33771;48.180;11.400;2023-04-01T11:52:34;9.20;99.90
48007;DHT22;33771;48.180;11.400;2023-04-01T12:01:13;8.80;99.90
48007;DHT22;33771;48.180;11.400;2023-04-01T12:15:19;8.80;99.90
48007;DHT22;33771;48.180;11.400;2023-04-01T12:20:51;8.80;99.90
48007;DHT22;33771;48.180;11.400;2023-04-01T12:23:45;8.80;99.90
48007;DHT22;33771;48.180;11.400;2023-04-01T12:34:58;8.70;99.90
48007;DHT22;33771;48.180;11.400;2023-04-01T12:37:36;8.70;99.90
48007;DHT22;33771;48.180;11.400;2023-04-01T12:45:43;8.80;99.90
48007;DHT22;33771;48.180;11.400;2023-04-01T12:48:19;8.80;99.90
48007;DHT22;33771;48.180;11.400;2023-04-01T12:51:19;8.80;99.90
48007;DHT22;33771;48.180;11.400;2023-04-01T13:15:13;8.90;99.90
48007;DHT22;33771;48.180;11.400;2023-04-01T13:21:15;8.80;99.90
48007;DHT22;33771;48.180;11.400;2023-04-01T13:24:03;8.90;99.90
48007;DHT22;33771;48.180;11.400;2023-04-01T13:29:43;9.00;99.90
48007;DHT22;33771;48.180;11.400;2023-04-01T13:32:42;9.00;99.90
48007;DHT22;33771;48.180;11.400;2023-04-01T13:38:08;8.90;99.90
48007;DHT22;33771;48.180;11.400;2023-04-01T13:43:43;9.00;99.90
48007;DHT22;33771;48.180;11.400;2023-04-01T13:51:55;9.00;99.90
48007;DHT22;33771;48.180;11.400;2023-04-01T13:54:41;9.00;99.90
48007;DHT22;33771;48.180;11.400;2023-04-01T13:57:25;9.10;99.90
48007;DHT22;33771;48.180;11.400;2023-04-01T14:05:59;9.20;99.90
48007;DHT22;33771;48.180;11.400;2023-04-01T14:11:35;9.40;99.90
48007;DHT22;33771;48.180;11.400;2023-04-01T14:29:07;9.70;99.90
48007;DHT22;33771;48.180;11.400;2023-04-01T14:37:23;9.90;99.90
48007;DHT22;33771;48.180;11.400;2023-04-01T14:40:16;9.90;99.90
48007;DHT22;33771;48.180;11.400;2023-04-01T14:43:15;9.80;99.90
48007;DHT22;33771;48.180;11.400;2023-04-01T14:48:38;9.70;99.90
48007;DHT22;33771;48.180;11.400;2023-04-01T14:54:16;9.80;99.90
48007;DHT22;33771;48.180;11.400;2023-04-01T14:56:50;9.60;99.90
48007;DHT22;33771;48.180;11.400;2023-04-01T15:11:10;9.20;99.90
48007;DHT22;33771;48.180;11.400;2023-04-01T15:14:13;9.10;99.90
48007;DHT22;33771;48.180;11.400;2023-04-01T15:19:35;9.30;99.90
48007;DHT22;33771;48.180;11.400;2023-04-01T15:27:44;9.50;99.90
48007;DHT22;33771;48.180;11.400;2023-04-01T15:30:17;9.50;99.90
48007;DHT22;33771;48.180;11.400;2023-04-01T15:35:34;9.50;99.90
48007;DHT22;33771;48.180;11.400;2023-04-01T15:38:43;9.50;99.90
48007;DHT22;33771;48.180;11.400;2023-04-01T15:41:15;9.50;99.90
48007;DHT22;33771;48.180;11.400;2023-04-01T15:43:45;9.40;99.90
48007;DHT22;33771;48.180;11.400;2023-04-01T15:54:27;9.60;99.90
48007;DHT22;33771;48.180;11.400;2023-04-01T15:57:13;9.60;99.90
48007;DHT22;33771;48.180;11.400;2023-04-01T16:02:32;9.80;99.90
48007;DHT22;33771;48.180;11.400;2023-04-01T16:10:59;10.10;99.90
48007;DHT22;33771;48.180;11.400;2023-04-01T16:13:57;10.00;99.90
48007;DHT22;33771;48.180;11.400;2023-04-01T16:19:55;10.00;99.90
48007;DHT22;33771;48.180;11.400;2023-04-01T16:22:44;9.90;99.90
48007;DHT22;33771;48.180;11.400;2023-04-01T16:25:33;9.80;99.90
48007;DHT22;33771;48.180;11.400;2023-04-01T16:28:25;9.80;99.90
48007;DHT22;33771;48.180;11.400;2023-04-01T16:50:46;9.50;99.90
48007;DHT22;33771;48.180;11.400;2023-04-01T16:53:25;9.40;99.90
48007;DHT22;33771;48.180;11.400;2023-04-01T16:56:07;9.40;99.90
48007;DHT22;33771;48.180;11.400;2023-04-01T16:58:56;9.40;99.90
48007;DHT22;33771;48.180;11.400;2023-04-01T17:01:36;9.40;99.90
48007;DHT22;33771;48.180;11.400;2023-04-01T17:07:28;9.40;99.90
48007;DHT22;33771;48.180;11.400;2023-04-01T17:13:13;9.40;99.90
48007;DHT22;33771;48.180;11.400;2023-04-01T17:23:45;9.30;99.90
48007;DHT22;33771;48.180;11.400;2023-04-01T17:29:12;9.20;99.90
48007;DHT22;33771;48.180;11.400;2023-04-01T17:32:07;9.20;99.90
48007;DHT22;33771;48.180;11.400;2023-04-01T17:35:16;9.10;99.90
48007;DHT22;33771;48.180;11.400;2023-04-01T17:37:57;9.10;99.90
48007;DHT22;33771;48.180;11.400;2023-04-01T17:43:52;9.00;99.90
48007;DHT22;33771;48.180;11.400;2023-04-01T17:46:54;9.00;99.90
48007;DHT22;33771;48.180;11.400;2023-04-01T17:52:30;8.90;99.90
48007;DHT22;33771;48.180;11.400;2023-04-01T18:00:28;8.90;99.90
48007;DHT22;33771;48.180;11.400;2023-04-01T18:05:39;8.80;99.90
48007;DHT22;33771;48.180;11.400;2023-04-01T18:10:55;8.90;99.90
48007;DHT22;33771;48.180;11.400;2023-04-01T18:16:43;8.90;99.90
48007;DHT22;33771;48.180;11.400;2023-04-01T18:24:49;8.90;99.90
48007;DHT22;33771;48.180;11.400;2023-04-01T18:27:24;8.90;99.90
48007;DHT22;33771;48.180;11.400;2023-04-01T18:30:07;8.90;99.90
48007;DHT22;33771;48.180;11.400;2023-04-01T18:37:59;8.80;99.90
48007;DHT22;33771;48.180;11.400;2023-04-01T18:40:35;8.80;99.90
48007;DHT22;33771;48.180;11.400;2023-04-01T18:46:16;8.70;99.90
48007;DHT22;33771;48.180;11.400;2023-04-01T18:51:52;8.70;99.90
48007;DHT22;33771;48.180;11.400;2023-04-01T18:54:23;8.70;99.90
48007;DHT22;33771;48.180;11.400;2023-04-01T18:57:13;8.70;99.90
48007;DHT22;33771;48.180;11.400;2023-04-01T18:59:51;8.60;99.90
48007;DHT22;33771;48.180;11.400;2023-04-01T19:02:43;8.60;99.90
48007;DHT22;33771;48.180;11.400;2023-04-01T19:07:56;8.60;99.90
48007;DHT22;33771;48.180;11.400;2023-04-01T19:16:36;8.40;99.90
48007;DHT22;33771;48.180;11.400;2023-04-01T19:28:13;8.20;99.90
48007;DHT22;33771;48.180;11.400;2023-04-01T19:34:06;8.10;99.90
48007;DHT22;33771;48.180;11.400;2023-04-01T19:36:57;8.10;99.90
48007;DHT22;33771;48.180;11.400;2023-04-01T19:39:31;8.10;99.90
48007;DHT22;33771;48.180;11.400;2023-04-01T19:50:30;7.80;99.90
48007;DHT22;33771;48.180;11.400;2023-04-01T19:53:18;7.80;99.90
48007;DHT22;33771;48.180;11.400;2023-04-01T19:56:13;7.80;99.90
48007;DHT22;33771;48.180;11.400;2023-04-01T20:04:41;7.60;99.90
48007;DHT22;33771;48.180;11.400;2023-04-01T20:15:46;7.40;99.90
48007;DHT22;33771;48.180;11.400;2023-04-01T20:26:29;7.30;99.90
48007;DHT22;33771;48.180;11.400;2023-04-01T20:35:06;7.30;99.90
48007;DHT22;33771;48.180;11.400;2023-04-01T20:38:19;7.30;99.90
48007;DHT22;33771;48.180;11.400;2023-04-01T20:40:46;7.30;99.90
48007;DHT22;33771;48.180;11.400;2023-04-01T20:51:47;7.30;99.90
48007;DHT22;33771;48.180;11.400;2023-04-01T20:54:35;7.30;99.90
48007;DHT22;33771;48.180;11.400;2023-04-01T20:57:28;7.20;99.90
48007;DHT22;33771;48.180;11.400;2023-04-01T21:07:58;7.20;99.90
48007;DHT22;33771;48.180;11.400;2023-04-01T21:10:50;7.20;99.90
48007;DHT22;33771;48.180;11.400;2023-04-01T21:13:57;7.20;99.90
48007;DHT22;33771;48.180;11.400;2023-04-01T21:16:36;7.20;99.90
48007;DHT22;33771;48.180;11.400;2023-04-01T21:32:18;7.20;99.90
48007;DHT22;33771;48.180;11.400;2023-04-01T21:34:50;7.30;99.90
48007;DHT22;33771;48.180;11.400;2023-04-01T21:40:01;7.20;99.90
48007;DHT22;33771;48.180;11.400;2023-04-01T21:45:37;7.20;99.90
48007;DHT22;33771;48.180;11.400;2023-04-01T21:51:14;7.20;99.90
48007;DHT22;33771;48.180;11.400;2023-04-01T21:59:09;7.20;99.90
48007;DHT22;33771;48.180;11.400;2023-04-01T22:02:03;7.20;99.90
48007;DHT22;33771;48.180;11.400;2023-04-01T22:07:21;7.20;99.90
48007;DHT22;33771;48.180;11.400;2023-04-01T22:09:52;7.20;99.90
48007;DHT22;33771;48.180;11.400;2023-04-01T22:18:09;7.30;99.90
48007;DHT22;33771;48.180;11.400;2023-04-01T22:23:52;7.20;99.90
48007;DHT22;33771;48.180;11.400;2023-04-01T22:29:23;7.30;99.90
48007;DHT22;33771;48.180;11.400;2023-04-01T22:32:18;7.30;99.90
48007;DHT22;33771;48.180;11.400;2023-04-01T22:43:07;7.40;99.90
48007;DHT22;33771;48.180;11.400;2023-04-01T22:48:32;7.40;99.90
48007;DHT22;33771;48.180;11.400;2023-04-01T22:51:04;7.50;99.90
48007;DHT22;33771;48.180;11.400;2023-04-01T23:02:20;7.40;99.90
48007;DHT22;33771;48.180;11.400;2023-04-01T23:04:41;7.40;99.90
48007;DHT22;33771;48.180;11.400;2023-04-01T23:10:39;7.30;99.90
48007;DHT22;33771;48.180;11.400;2023-04-01T23:13:13;7.40;99.90
48007;DHT22;33771;48.180;11.400;2023-04-01T23:15:41;7.30;99.90
48007;DHT22;33771;48.180;11.400;2023-04-01T23:18:35;7.40;99.90
48007;DHT22;33771;48.180;11.400;2023-04-01T23:24:15;7.40;99.90
48007;DHT22;33771;48.180;11.400;2023-04-01T23:29:14;7.30;99.90
48007;DHT22;33771;48.180;11.400;2023-04-01T23:31:45;7.30;99.90
48007;DHT22;33771;48.180;11.400;2023-04-01T23:36:49;7.30;99.90
48007;DHT22;33771;48.180;11.400;2023-04-01T23:42:12;7.30;99.90
48007;DHT22;33771;48.180;11.400;2023-04-01T23:44:40;7.20;99.90
48007;DHT22;33771;48.180;11.400;2023-04-01T23:47:11;7.20;99.90
48007;DHT22;33771;48.180;11.400;2023-04-01T23:49:44;7.20;99.90
48007;DHT22;33771;48.180;11.400;2023-04-01T23:52:23;7.20;99.90
48007;DHT22;33771;48.180;11.400;2023-04-01T23:55:00;7.20;99.90
48007;DHT22;33771;48.180;11.400;2023-04-01T23:57:34;7.20;99.90
